Time;durP1;ratioP1;P1;durP2;ratioP2;P2;SDS_P1;SDS_P2;PMS_P1;PMS_P2;Temp;Humidity;BMP_temperature;BMP_pressure;BME280_temperature;BME280_humidity;BME280_pressure;Samples;Min_cycle;Max_cycle;Signal;HPM_P1;HPM_P2
2023/01/26 00:01:52;;;;;;;67.85;22.10;;;;;;;;;;5049574;28;21215;-65
2023/01/26 00:04:18;;;;;;;67.85;22.98;;;;;;;;;;5070559;28;20037;-65
2023/01/26 00:06:44;;;;;;;77.03;23.67;;;;;;;;;;5057752;28;20102;-65
2023/01/26 00:09:13;;;;;;;66.07;23.15;;;;;;;;;;5067726;28;20040;-65
2023/01/26 00:11:39;;;;;;;72.85;22.20;;;;;;;;;;5069698;28;20068;-65
2023/01/26 00:14:05;;;;;;;76.15;25.08;;;;;;;;;;5052777;28;20510;-65
2023/01/26 00:16:31;;;;;;;72.00;25.60;;;;;;;;;;5070869;28;20042;-65
2023/01/26 00:18:57;;;;;;;75.97;24.73;;;;;;;;;;5068277;28;20395;-65
2023/01/26 00:21:24;;;;;;;74.70;24.92;;;;;;;;;;5059852;28;20043;-65
2023/01/26 00:23:50;;;;;;;74.05;24.60;;;;;;;;;;5052422;28;20048;-65
2023/01/26 00:26:19;;;;;;;75.50;24.08;;;;;;;;;;5073585;28;20041;-65
2023/01/26 00:28:45;;;;;;;80.07;25.35;;;;;;;;;;5074185;28;20119;-65
2023/01/26 00:31:15;;;;;;;80.32;26.08;;;;;;;;;;5074924;28;20075;-66
2023/01/26 00:33:41;;;;;;;73.27;24.10;;;;;;;;;;5043554;28;20119;-66
2023/01/26 00:36:07;;;;;;;74.15;23.98;;;;;;;;;;5063812;28;20033;-65
2023/01/26 00:38:34;;;;;;;76.03;24.25;;;;;;;;;;5070558;28;20047;-65
2023/01/26 00:41:00;;;;;;;79.65;26.02;;;;;;;;;;5073687;28;20094;-65
2023/01/26 00:43:26;;;;;;;75.43;23.88;;;;;;;;;;5069869;28;20097;-65
2023/01/26 00:45:52;;;;;;;71.13;24.50;;;;;;;;;;5070418;28;20049;-65
2023/01/26 00:48:18;;;;;;;80.38;26.38;;;;;;;;;;5070217;28;20548;-65
2023/01/26 00:50:44;;;;;;;78.88;26.50;;;;;;;;;;5063919;28;20037;-65
2023/01/26 00:53:13;;;;;;;76.13;24.80;;;;;;;;;;5054047;28;20045;-65
2023/01/26 00:55:39;;;;;;;74.00;23.90;;;;;;;;;;5067612;28;20036;-65
2023/01/26 00:58:06;;;;;;;79.50;26.27;;;;;;;;;;5064631;28;20496;-65
2023/01/26 01:00:33;;;;;;;81.68;26.58;;;;;;;;;;5072408;28;20413;-65
2023/01/26 01:02:59;;;;;;;83.55;26.95;;;;;;;;;;5072767;28;20102;-65
2023/01/26 01:05:26;;;;;;;78.40;24.80;;;;;;;;;;5066413;28;20449;-65
2023/01/26 01:07:52;;;;;;;69.30;24.75;;;;;;;;;;5069307;28;20406;-65
2023/01/26 01:10:18;;;;;;;81.05;25.80;;;;;;;;;;5064970;28;20044;-65
2023/01/26 01:12:44;;;;;;;85.68;25.73;;;;;;;;;;5069694;28;20036;-65
2023/01/26 01:15:10;;;;;;;84.65;27.23;;;;;;;;;;5060137;28;20040;-65
2023/01/26 01:17:37;;;;;;;70.22;22.73;;;;;;;;;;5069476;28;20047;-66
2023/01/26 01:20:04;;;;;;;78.05;25.65;;;;;;;;;;5072080;28;20265;-65
2023/01/26 01:22:30;;;;;;;70.47;23.63;;;;;;;;;;5067601;28;20063;-65
2023/01/26 01:24:56;;;;;;;82.65;24.60;;;;;;;;;;5071619;28;20029;-65
2023/01/26 01:27:22;;;;;;;78.30;24.88;;;;;;;;;;5067602;28;20041;-65
2023/01/26 01:29:52;;;;;;;71.07;22.00;;;;;;;;;;5072549;28;20040;-65
2023/01/26 01:32:18;;;;;;;71.22;23.80;;;;;;;;;;5066563;28;20395;-66
2023/01/26 01:34:47;;;;;;;75.88;24.33;;;;;;;;;;5070586;28;20098;-65
2023/01/26 01:37:14;;;;;;;64.40;22.08;;;;;;;;;;5061844;28;20506;-65
2023/01/26 01:39:40;;;;;;;73.90;23.17;;;;;;;;;;5066020;28;20040;-65
2023/01/26 01:42:06;;;;;;;76.22;24.23;;;;;;;;;;5059918;28;20035;-65
2023/01/26 01:44:35;;;;;;;85.82;23.98;;;;;;;;;;5069776;28;20029;-65
2023/01/26 01:47:06;;;;;;;75.78;23.50;;;;;;;;;;5071368;28;20032;-66
2023/01/26 01:49:34;;;;;;;68.22;23.13;;;;;;;;;;5058817;28;20516;-66
2023/01/26 01:52:03;;;;;;;72.72;22.83;;;;;;;;;;5069869;28;20086;-65
2023/01/26 01:54:33;;;;;;;73.60;25.48;;;;;;;;;;5068121;28;20032;-65
2023/01/26 01:57:02;;;;;;;76.00;24.30;;;;;;;;;;5061603;28;20055;-65
2023/01/26 01:59:29;;;;;;;78.88;24.83;;;;;;;;;;5046643;28;20041;-65
2023/01/26 02:01:56;;;;;;;71.60;23.73;;;;;;;;;;5048648;28;20047;-65
2023/01/26 02:04:23;;;;;;;69.10;21.45;;;;;;;;;;5052587;28;20043;-65
2023/01/26 02:06:53;;;;;;;66.30;21.13;;;;;;;;;;5064870;28;20040;-65
2023/01/26 02:12:08;;;;;;;59.28;21.73;;;;;;;;;;5056751;28;20094;-65
2023/01/26 02:14:34;;;;;;;76.85;22.27;;;;;;;;;;5071509;28;20089;-65
2023/01/26 02:17:00;;;;;;;62.67;21.42;;;;;;;;;;5054759;28;20494;-65
2023/01/26 02:19:31;;;;;;;63.80;21.33;;;;;;;;;;5070689;28;20085;-65
2023/01/26 02:21:59;;;;;;;63.70;20.97;;;;;;;;;;5072585;28;20079;-65
2023/01/26 02:24:27;;;;;;;60.25;20.30;;;;;;;;;;5070316;28;20044;-65
2023/01/26 02:26:53;;;;;;;63.30;21.33;;;;;;;;;;5061341;28;20058;-66
2023/01/26 02:29:20;;;;;;;58.47;19.80;;;;;;;;;;5067851;28;20625;-65
2023/01/26 02:31:46;;;;;;;62.78;18.73;;;;;;;;;;5072546;28;20491;-65
2023/01/26 02:34:12;;;;;;;56.72;20.35;;;;;;;;;;5071158;28;20047;-65
2023/01/26 02:36:38;;;;;;;69.85;22.00;;;;;;;;;;5046130;28;20049;-64
2023/01/26 02:39:19;;;;;;;64.55;21.45;;;;;;;;;;5071289;28;20043;-63
2023/01/26 02:44:30;;;;;;;59.20;18.85;;;;;;;;;;5069275;28;20295;-62
2023/01/26 02:46:56;;;;;;;57.72;19.60;;;;;;;;;;5070627;28;20491;-62
2023/01/26 02:52:07;;;;;;;49.70;17.35;;;;;;;;;;5064423;28;20047;-62
2023/01/26 02:57:18;;;;;;;58.85;17.70;;;;;;;;;;5066150;28;20047;-62
2023/01/26 02:59:44;;;;;;;51.25;16.73;;;;;;;;;;5068005;28;20037;-62
2023/01/26 03:02:10;;;;;;;40.50;15.05;;;;;;;;;;5065007;28;20040;-62
2023/01/26 03:04:36;;;;;;;51.13;16.38;;;;;;;;;;5066831;28;20113;-62
2023/01/26 03:07:02;;;;;;;40.75;14.75;;;;;;;;;;5052293;28;20534;-63
2023/01/26 03:09:28;;;;;;;41.97;15.38;;;;;;;;;;5061761;28;20036;-63
2023/01/26 03:14:23;;;;;;;45.03;16.50;;;;;;;;;;5024205;28;20041;-69
2023/01/26 03:16:49;;;;;;;43.75;15.07;;;;;;;;;;5019759;28;20116;-68
2023/01/26 03:27:33;;;;;;;41.53;14.20;;;;;;;;;;5036533;28;20052;-68
2023/01/26 03:29:59;;;;;;;46.92;16.00;;;;;;;;;;5043119;28;20068;-68
2023/01/26 03:32:25;;;;;;;48.28;16.08;;;;;;;;;;5050428;28;20557;-68
2023/01/26 03:34:51;;;;;;;46.70;14.73;;;;;;;;;;5047382;28;20051;-69
2023/01/26 03:37:21;;;;;;;44.15;14.57;;;;;;;;;;5046278;28;20124;-69
2023/01/26 03:56:23;;;;;;;32.92;12.00;;;;;;;;;;5042057;28;20086;-71
2023/01/26 03:58:51;;;;;;;37.90;12.48;;;;;;;;;;5041920;28;20064;-72
2023/01/26 04:01:18;;;;;;;34.10;12.50;;;;;;;;;;5049010;28;20038;-72
2023/01/26 04:09:18;;;;;;;33.42;11.43;;;;;;;;;;5048346;28;20137;-73
2023/01/26 04:11:44;;;;;;;30.95;12.52;;;;;;;;;;5049508;28;20048;-73
2023/01/26 04:22:26;;;;;;;37.78;12.90;;;;;;;;;;5054329;28;20040;-73
2023/01/26 04:24:52;;;;;;;34.28;12.10;;;;;;;;;;5047949;28;20044;-73
2023/01/26 04:27:18;;;;;;;33.90;11.63;;;;;;;;;;5053666;28;20394;-72
2023/01/26 04:29:44;;;;;;;36.70;12.40;;;;;;;;;;5042553;28;20095;-72
2023/01/26 04:32:10;;;;;;;32.85;11.63;;;;;;;;;;5047763;28;20037;-72
2023/01/26 04:34:36;;;;;;;29.27;11.38;;;;;;;;;;5048493;28;20033;-72
2023/01/26 04:37:02;;;;;;;30.38;10.43;;;;;;;;;;5050063;28;20068;-71
2023/01/26 04:39:28;;;;;;;27.88;11.40;;;;;;;;;;5047125;28;20091;-72
2023/01/26 04:41:54;;;;;;;32.83;11.23;;;;;;;;;;5047868;28;20052;-72
2023/01/26 04:44:20;;;;;;;32.10;11.18;;;;;;;;;;5045745;28;20041;-73
2023/01/26 04:46:47;;;;;;;25.58;10.15;;;;;;;;;;5052807;28;20051;-73
2023/01/26 04:49:13;;;;;;;30.38;11.80;;;;;;;;;;5043182;28;20127;-73
2023/01/26 04:51:40;;;;;;;28.48;10.52;;;;;;;;;;5053465;28;20135;-72
2023/01/26 04:54:06;;;;;;;31.42;11.10;;;;;;;;;;5052829;28;20040;-73
2023/01/26 04:56:33;;;;;;;29.02;11.15;;;;;;;;;;5052414;28;20041;-72
2023/01/26 04:59:00;;;;;;;27.13;10.77;;;;;;;;;;5048614;28;20046;-72
2023/01/26 05:01:26;;;;;;;27.25;9.85;;;;;;;;;;5046913;28;20037;-72
2023/01/26 05:03:52;;;;;;;31.05;10.80;;;;;;;;;;5046472;28;20041;-72
2023/01/26 05:06:18;;;;;;;25.13;10.55;;;;;;;;;;5046307;28;20512;-72
2023/01/26 05:08:44;;;;;;;30.80;11.32;;;;;;;;;;5052267;28;20044;-72
2023/01/26 05:11:10;;;;;;;29.48;11.27;;;;;;;;;;5047856;28;20065;-72
2023/01/26 05:13:36;;;;;;;27.77;10.48;;;;;;;;;;5048007;28;20037;-71
2023/01/26 05:16:03;;;;;;;25.80;9.52;;;;;;;;;;5038812;28;20040;-71
2023/01/26 05:18:29;;;;;;;29.00;10.07;;;;;;;;;;5048903;28;20048;-71
2023/01/26 05:20:56;;;;;;;25.98;9.90;;;;;;;;;;5049234;28;20376;-71
2023/01/26 05:23:22;;;;;;;31.70;10.35;;;;;;;;;;5049417;28;20037;-71
2023/01/26 05:25:48;;;;;;;31.20;10.50;;;;;;;;;;5050427;28;20522;-72
2023/01/26 05:28:14;;;;;;;27.30;10.02;;;;;;;;;;5044271;28;20040;-72
2023/01/26 05:30:40;;;;;;;25.25;10.35;;;;;;;;;;5051831;28;20041;-72
2023/01/26 05:33:07;;;;;;;29.15;10.68;;;;;;;;;;5049931;28;20110;-72
2023/01/26 05:35:34;;;;;;;29.98;10.35;;;;;;;;;;5039145;28;20037;-72
2023/01/26 05:38:00;;;;;;;32.58;11.20;;;;;;;;;;5043224;28;20498;-72
2023/01/26 05:40:26;;;;;;;25.90;10.25;;;;;;;;;;5047398;28;20449;-72
2023/01/26 05:42:53;;;;;;;26.73;10.05;;;;;;;;;;5038545;28;20128;-71
2023/01/26 05:45:19;;;;;;;27.80;10.70;;;;;;;;;;5037717;28;20071;-71
2023/01/26 05:47:45;;;;;;;27.73;9.45;;;;;;;;;;5047708;28;20029;-71
2023/01/26 05:50:12;;;;;;;25.90;9.70;;;;;;;;;;5045110;28;20044;-71
2023/01/26 05:52:38;;;;;;;22.42;9.20;;;;;;;;;;5052162;28;20041;-71
2023/01/26 05:55:05;;;;;;;29.17;10.93;;;;;;;;;;5046296;28;20099;-71
2023/01/26 05:57:31;;;;;;;28.80;9.98;;;;;;;;;;5046855;28;20056;-71
2023/01/26 05:59:57;;;;;;;23.33;9.27;;;;;;;;;;5047312;28;20050;-71
2023/01/26 06:02:26;;;;;;;27.40;9.65;;;;;;;;;;5051733;28;20032;-71
2023/01/26 06:04:52;;;;;;;26.30;9.38;;;;;;;;;;5042039;28;20097;-72
2023/01/26 06:07:18;;;;;;;27.27;9.73;;;;;;;;;;5045921;28;20456;-72
2023/01/26 06:09:44;;;;;;;25.05;8.98;;;;;;;;;;5046583;28;20124;-71
2023/01/26 06:12:15;;;;;;;29.05;10.50;;;;;;;;;;5049515;28;20055;-72
2023/01/26 06:14:41;;;;;;;26.55;9.73;;;;;;;;;;5051134;28;20102;-72
2023/01/26 06:17:07;;;;;;;24.13;8.52;;;;;;;;;;5044196;28;20029;-72
2023/01/26 06:19:34;;;;;;;24.08;9.50;;;;;;;;;;5039226;28;20041;-72
2023/01/26 06:22:00;;;;;;;23.42;9.25;;;;;;;;;;5047372;28;20034;-72
2023/01/26 06:24:26;;;;;;;25.17;9.85;;;;;;;;;;5043220;28;20136;-71
2023/01/26 06:26:52;;;;;;;26.25;8.98;;;;;;;;;;5049633;28;20032;-71
2023/01/26 06:29:18;;;;;;;27.35;9.32;;;;;;;;;;5048381;28;20164;-71
2023/01/26 06:31:44;;;;;;;22.42;9.40;;;;;;;;;;5048393;28;20124;-71
2023/01/26 06:34:10;;;;;;;23.13;8.13;;;;;;;;;;5045447;28;20064;-71
2023/01/26 06:36:37;;;;;;;22.90;8.77;;;;;;;;;;5045995;28;20059;-71
2023/01/26 06:39:03;;;;;;;27.50;9.68;;;;;;;;;;5041832;28;20489;-71
2023/01/26 06:41:29;;;;;;;23.98;9.57;;;;;;;;;;5039416;28;20502;-71
2023/01/26 06:43:55;;;;;;;34.95;10.20;;;;;;;;;;5045834;28;20040;-71
2023/01/26 06:46:21;;;;;;;27.83;8.88;;;;;;;;;;5049860;28;20044;-70
2023/01/26 06:48:47;;;;;;;28.13;9.75;;;;;;;;;;5048767;28;20040;-70
2023/01/26 06:51:15;;;;;;;37.88;11.45;;;;;;;;;;5049995;28;20394;-70
2023/01/26 06:53:52;;;;;;;32.35;10.68;;;;;;;;;;5040456;28;20139;-68
2023/01/26 06:56:18;;;;;;;33.47;10.13;;;;;;;;;;5049836;28;20048;-70
2023/01/26 06:58:44;;;;;;;41.13;11.32;;;;;;;;;;5050796;28;20040;-70
2023/01/26 07:01:15;;;;;;;44.47;11.45;;;;;;;;;;5044686;28;20033;-70
2023/01/26 07:03:41;;;;;;;37.97;12.93;;;;;;;;;;5041567;28;20041;-70
2023/01/26 07:06:10;;;;;;;43.30;11.75;;;;;;;;;;5047683;28;20721;-70
2023/01/26 07:08:37;;;;;;;44.28;12.02;;;;;;;;;;5042264;28;20032;-70
2023/01/26 07:11:03;;;;;;;53.53;13.32;;;;;;;;;;5046700;28;20103;-70
2023/01/26 07:13:29;;;;;;;43.83;11.98;;;;;;;;;;5037342;28;20044;-70
2023/01/26 07:16:05;;;;;;;47.92;12.15;;;;;;;;;;5048438;28;20041;-70
2023/01/26 07:18:34;;;;;;;46.38;11.75;;;;;;;;;;5039526;28;20045;-70
2023/01/26 07:21:00;;;;;;;47.90;12.02;;;;;;;;;;5047378;28;20115;-70
2023/01/26 07:23:26;;;;;;;53.40;13.95;;;;;;;;;;5044944;28;20033;-70
2023/01/26 07:25:52;;;;;;;35.03;11.95;;;;;;;;;;5044975;28;20786;-70
2023/01/26 07:28:18;;;;;;;51.03;13.38;;;;;;;;;;5048534;28;20087;-69
2023/01/26 07:30:44;;;;;;;54.58;14.05;;;;;;;;;;5042993;28;20441;-69
2023/01/26 07:33:10;;;;;;;35.97;12.35;;;;;;;;;;5045248;28;20039;-69
2023/01/26 07:35:36;;;;;;;55.40;13.57;;;;;;;;;;5045073;28;20044;-70
2023/01/26 07:38:03;;;;;;;53.88;14.25;;;;;;;;;;5044796;28;20105;-69
2023/01/26 07:40:29;;;;;;;63.92;15.15;;;;;;;;;;5043076;28;20131;-70
2023/01/26 07:42:56;;;;;;;60.42;14.05;;;;;;;;;;5044930;28;20121;-69
2023/01/26 07:45:22;;;;;;;52.35;14.48;;;;;;;;;;5043339;28;20032;-69
2023/01/26 07:47:48;;;;;;;70.75;16.52;;;;;;;;;;5042458;28;20052;-70
2023/01/26 07:50:14;;;;;;;85.97;17.20;;;;;;;;;;5045073;28;20037;-69
2023/01/26 07:52:40;;;;;;;63.83;16.58;;;;;;;;;;5048300;28;20079;-69
2023/01/26 07:55:06;;;;;;;64.50;16.70;;;;;;;;;;5048766;28;20048;-70
2023/01/26 07:57:33;;;;;;;83.15;17.67;;;;;;;;;;5047657;28;20506;-70
2023/01/26 07:59:59;;;;;;;65.28;17.08;;;;;;;;;;5045016;28;20391;-70
2023/01/26 08:02:25;;;;;;;73.53;17.60;;;;;;;;;;5042535;28;20034;-70
2023/01/26 08:04:51;;;;;;;76.47;19.08;;;;;;;;;;5041504;28;20087;-70
2023/01/26 08:07:17;;;;;;;94.70;20.40;;;;;;;;;;5045250;28;20376;-70
2023/01/26 08:09:43;;;;;;;74.03;17.88;;;;;;;;;;5044529;28;20098;-70
2023/01/26 08:12:09;;;;;;;90.07;19.20;;;;;;;;;;5036058;28;20042;-70
2023/01/26 08:14:35;;;;;;;71.85;17.98;;;;;;;;;;5040226;28;20045;-70
2023/01/26 08:17:01;;;;;;;93.50;18.33;;;;;;;;;;5045126;28;20437;-70
2023/01/26 08:19:27;;;;;;;72.47;18.13;;;;;;;;;;5035919;28;20046;-70
2023/01/26 08:21:53;;;;;;;91.68;18.15;;;;;;;;;;5048366;28;20041;-70
2023/01/26 08:24:19;;;;;;;68.28;17.90;;;;;;;;;;5046391;28;20028;-70
2023/01/26 08:26:45;;;;;;;80.93;18.25;;;;;;;;;;5045916;28;20033;-70
2023/01/26 08:29:11;;;;;;;83.20;17.92;;;;;;;;;;5034966;28;20121;-70
2023/01/26 08:31:37;;;;;;;86.78;18.83;;;;;;;;;;5037435;28;20041;-71
2023/01/26 08:34:03;;;;;;;86.10;18.55;;;;;;;;;;5047678;28;20056;-71
2023/01/26 08:36:30;;;;;;;108.97;19.70;;;;;;;;;;5036919;28;20037;-70
2023/01/26 08:38:56;;;;;;;132.80;21.60;;;;;;;;;;5048522;28;20119;-69
2023/01/26 08:41:22;;;;;;;179.07;23.10;;;;;;;;;;5048257;28;20076;-70
2023/01/26 08:43:48;;;;;;;193.30;22.60;;;;;;;;;;5047353;28;20099;-70
2023/01/26 08:46:14;;;;;;;206.98;23.05;;;;;;;;;;5047417;28;20121;-70
2023/01/26 08:48:40;;;;;;;171.02;19.70;;;;;;;;;;5045667;28;20034;-69
2023/01/26 08:51:06;;;;;;;168.95;19.48;;;;;;;;;;5048802;28;20045;-70
2023/01/26 08:53:33;;;;;;;171.93;20.63;;;;;;;;;;5047549;28;20044;-70
2023/01/26 08:56:03;;;;;;;107.60;16.42;;;;;;;;;;5047984;28;20475;-70
2023/01/26 08:58:29;;;;;;;157.80;19.38;;;;;;;;;;5042717;28;20495;-70
2023/01/26 09:00:55;;;;;;;191.38;19.98;;;;;;;;;;5049530;28;20402;-70
2023/01/26 09:03:21;;;;;;;229.55;22.60;;;;;;;;;;5048922;28;20040;-70
2023/01/26 09:05:47;;;;;;;156.95;19.50;;;;;;;;;;5049367;28;20045;-70
2023/01/26 09:08:16;;;;;;;117.80;16.02;;;;;;;;;;5044624;28;20449;-70
2023/01/26 09:10:45;;;;;;;133.68;16.15;;;;;;;;;;5050561;28;20497;-70
2023/01/26 09:13:11;;;;;;;142.82;16.55;;;;;;;;;;5072848;22;20035;-61
2023/01/26 09:15:38;;;;;;;160.88;17.15;;;;;;;;;;5068831;28;20574;-61
2023/01/26 09:18:04;;;;;;;144.18;17.80;;;;;;;;;;5082859;28;20393;-61
2023/01/26 09:20:30;;;;;;;150.20;16.08;;;;;;;;;;5081566;28;20044;-61
2023/01/26 09:22:56;;;;;;;92.22;13.23;;;;;;;;;;5061732;28;20489;-62
2023/01/26 09:25:22;;;;;;;102.93;14.13;;;;;;;;;;5066319;28;20033;-61
2023/01/26 09:27:48;;;;;;;121.65;14.77;;;;;;;;;;5062265;28;20698;-62
2023/01/26 09:30:14;;;;;;;86.55;13.95;;;;;;;;;;5066444;28;20033;-62
2023/01/26 09:32:40;;;;;;;95.72;14.57;;;;;;;;;;5068960;28;20032;-62
2023/01/26 09:35:10;;;;;;;67.10;13.68;;;;;;;;;;5068698;28;20052;-62
2023/01/26 09:37:36;;;;;;;78.68;12.63;;;;;;;;;;5063792;28;20044;-62
2023/01/26 09:40:02;;;;;;;38.78;10.95;;;;;;;;;;5065076;28;20124;-62
2023/01/26 09:42:31;;;;;;;40.25;10.80;;;;;;;;;;5063624;28;20032;-62
2023/01/26 09:45:03;;;;;;;49.60;12.10;;;;;;;;;;5060404;28;20561;-62
2023/01/26 09:47:29;;;;;;;39.20;11.10;;;;;;;;;;5062845;28;20115;-62
2023/01/26 09:49:55;;;;;;;36.67;10.52;;;;;;;;;;5065542;28;20148;-62
2023/01/26 09:52:21;;;;;;;33.45;9.57;;;;;;;;;;5067403;28;20567;-62
2023/01/26 09:55:10;;;;;;;31.15;10.07;;;;;;;;;;5065348;28;20036;-62
2023/01/26 09:57:39;;;;;;;34.78;10.75;;;;;;;;;;5062628;28;20567;-62
2023/01/26 10:00:11;;;;;;;40.40;10.45;;;;;;;;;;5066725;28;20041;-61
2023/01/26 10:03:00;;;;;;;36.72;10.73;;;;;;;;;;5067865;28;20093;-62
2023/01/26 10:05:29;;;;;;;35.25;10.68;;;;;;;;;;5066773;28;20572;-62
2023/01/26 10:07:55;;;;;;;44.08;10.25;;;;;;;;;;5066410;28;20445;-62
2023/01/26 10:10:27;;;;;;;38.28;9.88;;;;;;;;;;5067889;28;20044;-62
2023/01/26 10:12:53;;;;;;;37.90;10.30;;;;;;;;;;5066366;28;20139;-63
2023/01/26 10:15:22;;;;;;;40.65;9.82;;;;;;;;;;5067798;28;20466;-63
2023/01/26 10:17:49;;;;;;;34.45;9.45;;;;;;;;;;5067106;28;20151;-62
2023/01/26 10:20:27;;;;;;;43.00;10.25;;;;;;;;;;5067490;28;20040;-62
2023/01/26 10:22:56;;;;;;;39.75;9.98;;;;;;;;;;5066074;28;20043;-62
2023/01/26 10:25:29;;;;;;;39.65;10.52;;;;;;;;;;5066338;28;20402;-61
2023/01/26 10:27:55;;;;;;;35.80;9.82;;;;;;;;;;5067885;28;20036;-62
2023/01/26 10:30:21;;;;;;;33.80;8.38;;;;;;;;;;5067417;28;20033;-62
2023/01/26 10:32:50;;;;;;;37.63;9.73;;;;;;;;;;5066328;28;20457;-62
2023/01/26 10:35:18;;;;;;;35.70;9.05;;;;;;;;;;5065378;28;20043;-62
2023/01/26 10:37:44;;;;;;;38.28;10.55;;;;;;;;;;5061535;28;20428;-62
2023/01/26 10:40:11;;;;;;;41.55;9.43;;;;;;;;;;5066785;28;20033;-63
2023/01/26 10:42:37;;;;;;;35.08;8.65;;;;;;;;;;5067699;28;20032;-63
2023/01/26 10:45:05;;;;;;;32.25;9.57;;;;;;;;;;5066323;28;20033;-62
2023/01/26 10:47:32;;;;;;;38.88;8.90;;;;;;;;;;5065297;28;20043;-62
2023/01/26 10:50:13;;;;;;;38.53;9.75;;;;;;;;;;5062347;28;20068;-62
2023/01/26 10:52:39;;;;;;;;;;;;;;;;;;5065394;28;20133;-63
2023/01/26 10:55:13;;;;;;;34.70;7.70;;;;;;;;;;5068235;28;19916;-62
2023/01/26 10:57:40;;;;;;;35.65;7.20;;;;;;;;;;5058805;28;20049;-62
2023/01/26 11:00:19;;;;;;;44.85;7.35;;;;;;;;;;5063120;28;20036;-62
2023/01/26 11:02:50;;;;;;;38.08;6.47;;;;;;;;;;5063150;28;20040;-62
2023/01/26 11:05:20;;;;;;;32.88;6.43;;;;;;;;;;5062932;28;20044;-62
2023/01/26 11:07:48;;;;;;;41.20;6.82;;;;;;;;;;5066346;28;20144;-62
2023/01/26 11:10:24;;;;;;;39.97;6.13;;;;;;;;;;5067590;28;20528;-62
2023/01/26 11:12:51;;;;;;;36.38;5.88;;;;;;;;;;5058353;28;20043;-62
2023/01/26 11:15:17;;;;;;;40.88;6.63;;;;;;;;;;5063288;28;20170;-62
2023/01/26 11:17:54;;;;;;;32.70;5.22;;;;;;;;;;5065358;28;20044;-62
2023/01/26 11:20:39;;;;;;;30.63;5.97;;;;;;;;;;5069196;28;20048;-62
2023/01/26 11:23:24;;;;;;;24.83;6.03;;;;;;;;;;5066229;28;20060;-62
2023/01/26 11:26:09;;;;;;;24.58;5.15;;;;;;;;;;5061957;28;20036;-62
2023/01/26 11:28:43;;;;;;;23.08;5.10;;;;;;;;;;5067309;28;20040;-62
2023/01/26 11:31:21;;;;;;;25.95;4.57;;;;;;;;;;5069067;28;20039;-62
2023/01/26 11:33:47;;;;;;;25.27;4.78;;;;;;;;;;5056514;28;20032;-62
2023/01/26 11:36:27;;;;;;;30.65;5.22;;;;;;;;;;5064142;28;20054;-62
2023/01/26 11:39:18;;;;;;;23.70;3.97;;;;;;;;;;5064023;28;20525;-62
2023/01/26 11:41:44;;;;;;;28.10;4.63;;;;;;;;;;5060868;28;20044;-62
2023/01/26 11:44:13;;;;;;;26.92;3.83;;;;;;;;;;5059005;28;20036;-62
2023/01/26 11:46:51;;;;;;;29.70;3.75;;;;;;;;;;5065011;28;20032;-62
2023/01/26 11:49:20;;;;;;;26.10;3.97;;;;;;;;;;5060116;28;20071;-62
2023/01/26 11:52:09;;;;;;;27.13;4.13;;;;;;;;;;5064064;28;20086;-62
2023/01/26 11:54:35;;;;;;;27.02;4.32;;;;;;;;;;5065452;28;20510;-62
2023/01/26 11:57:13;;;;;;;25.08;3.17;;;;;;;;;;5063491;28;20128;-63
2023/01/26 11:59:43;;;;;;;33.63;4.70;;;;;;;;;;5060889;28;20113;-62
2023/01/26 12:02:28;;;;;;;22.80;4.20;;;;;;;;;;5056823;28;20032;-62
2023/01/26 12:04:57;;;;;;;22.35;3.47;;;;;;;;;;5071375;28;20048;-62
2023/01/26 12:07:55;;;;;;;23.35;3.05;;;;;;;;;;5068784;28;20109;-62
2023/01/26 12:10:30;;;;;;;21.63;4.00;;;;;;;;;;5039420;28;20045;-62
2023/01/26 12:13:11;;;;;;;15.98;3.10;;;;;;;;;;5064563;28;20040;-62
2023/01/26 12:15:39;;;;;;;17.98;3.35;;;;;;;;;;5059900;28;20033;-62
2023/01/26 12:18:09;;;;;;;20.60;3.47;;;;;;;;;;5066976;28;20494;-62
2023/01/26 12:20:35;;;;;;;22.88;3.45;;;;;;;;;;5059204;28;20044;-63
2023/01/26 12:23:01;;;;;;;19.17;2.55;;;;;;;;;;5071058;28;20047;-62
2023/01/26 12:25:33;;;;;;;18.08;2.65;;;;;;;;;;5066088;28;20139;-62
2023/01/26 12:28:06;;;;;;;20.10;3.10;;;;;;;;;;5062784;28;21455;-62
2023/01/26 12:30:35;;;;;;;21.20;3.72;;;;;;;;;;5067047;28;20043;-62
2023/01/26 12:33:02;;;;;;;23.23;3.05;;;;;;;;;;5065291;28;20390;-63
2023/01/26 12:35:43;;;;;;;19.30;3.30;;;;;;;;;;5061720;28;20039;-63
2023/01/26 12:38:32;;;;;;;18.75;2.88;;;;;;;;;;5061875;28;20094;-63
2023/01/26 12:41:05;;;;;;;15.48;3.03;;;;;;;;;;5028640;28;20079;-63
2023/01/26 12:43:37;;;;;;;18.85;2.65;;;;;;;;;;5064923;28;20055;-63
2023/01/26 12:46:04;;;;;;;19.33;2.72;;;;;;;;;;5065244;28;20099;-63
2023/01/26 12:48:43;;;;;;;22.65;3.53;;;;;;;;;;5061008;28;20033;-63
2023/01/26 12:51:12;;;;;;;16.08;2.17;;;;;;;;;;5064191;28;20033;-63
2023/01/26 12:54:07;;;;;;;16.40;2.58;;;;;;;;;;5063097;28;20037;-63
2023/01/26 12:56:37;;;;;;;13.05;2.55;;;;;;;;;;5058311;28;20075;-63
2023/01/26 12:59:09;;;;;;;16.20;1.95;;;;;;;;;;5071799;28;20143;-63
2023/01/26 13:01:40;;;;;;;9.55;1.58;;;;;;;;;;5064734;28;20047;-62
2023/01/26 13:04:10;;;;;;;12.85;1.70;;;;;;;;;;5071503;28;20032;-63
2023/01/26 13:06:36;;;;;;;9.57;1.92;;;;;;;;;;5068919;28;20115;-63
2023/01/26 13:09:19;;;;;;;12.57;2.13;;;;;;;;;;5070060;28;20040;-63
2023/01/26 13:11:47;;;;;;;7.95;2.05;;;;;;;;;;5061355;28;20043;-62
2023/01/26 13:14:28;;;;;;;8.90;1.77;;;;;;;;;;5059493;28;20043;-62
2023/01/26 13:16:54;;;;;;;;;;;;;;;;;;5063368;28;20043;-62
2023/01/26 13:19:39;;;;;;;7.30;1.35;;;;;;;;;;5068136;28;19920;-62
2023/01/26 13:22:25;;;;;;;10.52;3.10;;;;;;;;;;5060354;28;20478;-61
2023/01/26 13:24:56;;;;;;;9.88;1.85;;;;;;;;;;5064028;28;20040;-62
2023/01/26 13:27:55;;;;;;;12.40;2.03;;;;;;;;;;5064260;28;20051;-62
2023/01/26 13:30:21;;;;;;;12.38;2.33;;;;;;;;;;5033219;28;20041;-62
2023/01/26 13:32:47;;;;;;;11.40;2.03;;;;;;;;;;5064353;28;20528;-62
2023/01/26 13:35:14;;;;;;;20.05;2.58;;;;;;;;;;5064607;28;20516;-62
2023/01/26 13:37:43;;;;;;;5.95;1.60;;;;;;;;;;5068293;28;20043;-62
2023/01/26 13:40:20;;;;;;;13.18;1.60;;;;;;;;;;5053839;28;20040;-62
2023/01/26 13:43:05;;;;;;;7.03;1.33;;;;;;;;;;5065140;28;20068;-62
2023/01/26 13:45:44;;;;;;;12.02;1.98;;;;;;;;;;5052706;28;20091;-62
2023/01/26 13:48:15;;;;;;;8.57;1.52;;;;;;;;;;5052968;28;20391;-61
2023/01/26 13:50:41;;;;;;;14.23;2.00;;;;;;;;;;5067823;28;20036;-62
2023/01/26 13:53:28;;;;;;;6.40;1.55;;;;;;;;;;5062665;28;20040;-61
2023/01/26 13:55:56;;;;;;;9.23;1.70;;;;;;;;;;5065189;28;20053;-62
2023/01/26 13:58:22;;;;;;;6.75;1.30;;;;;;;;;;5065389;28;20560;-61
2023/01/26 14:00:58;;;;;;;12.07;1.50;;;;;;;;;;5056196;28;20052;-61
2023/01/26 14:03:24;;;;;;;7.85;1.60;;;;;;;;;;5059796;28;20037;-62
2023/01/26 14:05:52;;;;;;;9.35;1.40;;;;;;;;;;5056180;28;20450;-62
2023/01/26 14:08:21;;;;;;;9.32;1.60;;;;;;;;;;5064811;28;20040;-62
2023/01/26 14:10:47;;;;;;;11.18;1.60;;;;;;;;;;5069607;28;20124;-61
2023/01/26 14:13:40;;;;;;;8.75;1.13;;;;;;;;;;5063300;28;20544;-62
2023/01/26 14:16:07;;;;;;;7.95;1.90;;;;;;;;;;5058866;28;20495;-61
2023/01/26 14:18:33;;;;;;;11.13;1.83;;;;;;;;;;5059286;28;20079;-61
2023/01/26 14:21:14;;;;;;;7.13;1.25;;;;;;;;;;5059195;28;20043;-61
2023/01/26 14:23:39;;;;;;;7.38;1.17;;;;;;;;;;5067465;28;20111;-62
2023/01/26 14:26:18;;;;;;;8.90;1.08;;;;;;;;;;5068841;28;20128;-61
2023/01/26 14:28:45;;;;;;;12.70;1.35;;;;;;;;;;5060914;28;20116;-61
2023/01/26 14:31:14;;;;;;;9.88;1.30;;;;;;;;;;5059118;28;20046;-61
2023/01/26 14:33:40;;;;;;;5.40;1.40;;;;;;;;;;5067678;28;20036;-61
2023/01/26 14:36:06;;;;;;;6.47;0.93;;;;;;;;;;5062111;28;20072;-61
2023/01/26 14:38:40;;;;;;;6.63;1.15;;;;;;;;;;5068454;28;20036;-61
2023/01/26 14:41:16;;;;;;;8.10;1.45;;;;;;;;;;5065665;28;20043;-61
2023/01/26 14:43:42;;;;;;;8.25;1.30;;;;;;;;;;5060223;28;20036;-61
2023/01/26 14:46:23;;;;;;;12.70;1.60;;;;;;;;;;5063084;28;20062;-60
2023/01/26 14:48:49;;;;;;;9.73;1.27;;;;;;;;;;5069177;28;20127;-60
2023/01/26 14:51:18;;;;;;;5.07;0.95;;;;;;;;;;5072299;28;20124;-61
2023/01/26 14:53:52;;;;;;;9.60;1.60;;;;;;;;;;5062332;28;20111;-61
2023/01/26 14:56:19;;;;;;;6.57;1.40;;;;;;;;;;5058565;28;20128;-61
2023/01/26 14:58:45;;;;;;;4.30;0.80;;;;;;;;;;5066716;28;20051;-60
2023/01/26 15:01:19;;;;;;;6.50;1.20;;;;;;;;;;5056350;28;20043;-60
2023/01/26 15:03:45;;;;;;;12.80;1.30;;;;;;;;;;5067461;28;20036;-61
2023/01/26 15:06:14;;;;;;;8.75;1.35;;;;;;;;;;5065434;28;20037;-61
2023/01/26 15:08:41;;;;;;;7.28;1.27;;;;;;;;;;5069073;28;20494;-61
2023/01/26 15:13:54;;;;;;;8.95;1.45;;;;;;;;;;5066394;22;20609;-67
2023/01/26 15:16:24;;;;;;;7.70;1.38;;;;;;;;;;5046413;28;20067;-68
2023/01/26 15:19:00;;;;;;;8.68;1.63;;;;;;;;;;5037085;28;20051;-68
2023/01/26 15:21:35;;;;;;;9.18;1.75;;;;;;;;;;5050737;28;20032;-68
2023/01/26 15:24:01;;;;;;;7.78;1.30;;;;;;;;;;5048332;28;20092;-68
2023/01/26 15:26:28;;;;;;;7.15;1.75;;;;;;;;;;5043537;28;20043;-68
2023/01/26 15:28:56;;;;;;;11.93;1.63;;;;;;;;;;5050906;28;20036;-68